sensor_id;sensor_type;location;lat;lon;timestamp;temperature;humidity
11446;DHT22;5779;64.178;15.432;2024-01-10T00:00:36;4.00;99.90
11446;DHT22;5779;64.178;15.432;2024-01-10T00:03:26;3.90;99.90
11446;DHT22;5779;64.178;15.432;2024-01-10T00:06:14;3.80;99.90
11446;DHT22;5779;64.178;15.432;2024-01-10T00:09:03;3.90;99.90
11446;DHT22;5779;64.178;15.432;2024-01-10T00:11:50;3.90;99.90
11446;DHT22;5779;64.178;15.432;2024-01-10T00:14:36;4.00;99.90
11446;DHT22;5779;64.178;15.432;2024-01-10T00:17:23;4.00;99.90
11446;DHT22;5779;64.178;15.432;2024-01-10T00:20:10;4.00;99.90
11446;DHT22;5779;64.178;15.432;2024-01-10T00:22:57;4.00;99.90
11446;DHT22;5779;64.178;15.432;2024-01-10T00:25:48;3.90;99.90
11446;DHT22;5779;64.178;15.432;2024-01-10T00:28:35;3.90;99.90
11446;DHT22;5779;64.178;15.432;2024-01-10T00:31:22;4.00;99.90
11446;DHT22;5779;64.178;15.432;2024-01-10T00:34:09;3.90;99.90
11446;DHT22;5779;64.178;15.432;2024-01-10T00:36:56;4.00;99.90
11446;DHT22;5779;64.178;15.432;2024-01-10T00:39:42;3.90;99.90
11446;DHT22;5779;64.178;15.432;2024-01-10T00:42:31;3.90;99.90
11446;DHT22;5779;64.178;15.432;2024-01-10T00:45:18;3.90;99.90
11446;DHT22;5779;64.178;15.432;2024-01-10T00:48:05;4.00;99.90
11446;DHT22;5779;64.178;15.432;2024-01-10T00:50:52;3.90;99.90
11446;DHT22;5779;64.178;15.432;2024-01-10T00:53:39;3.90;99.90
11446;DHT22;5779;64.178;15.432;2024-01-10T00:56:25;3.90;99.90
11446;DHT22;5779;64.178;15.432;2024-01-10T00:59:14;3.80;99.90
11446;DHT22;5779;64.178;15.432;2024-01-10T01:02:01;3.90;99.90
11446;DHT22;5779;64.178;15.432;2024-01-10T01:04:48;3.90;99.90
11446;DHT22;5779;64.178;15.432;2024-01-10T01:07:35;3.90;99.90
11446;DHT22;5779;64.178;15.432;2024-01-10T01:10:22;3.90;99.90
11446;DHT22;5779;64.178;15.432;2024-01-10T01:13:09;3.80;99.90
11446;DHT22;5779;64.178;15.432;2024-01-10T01:15:57;3.90;99.90
11446;DHT22;5779;64.178;15.432;2024-01-10T01:18:44;4.00;99.90
11446;DHT22;5779;64.178;15.432;2024-01-10T01:21:31;4.00;99.90
11446;DHT22;5779;64.178;15.432;2024-01-10T01:24:17;4.00;99.90
11446;DHT22;5779;64.178;15.432;2024-01-10T01:27:04;4.00;99.90
11446;DHT22;5779;64.178;15.432;2024-01-10T01:29:51;4.00;99.90
11446;DHT22;5779;64.178;15.432;2024-01-10T01:32:39;4.00;99.90
11446;DHT22;5779;64.178;15.432;2024-01-10T01:35:25;4.00;99.90
11446;DHT22;5779;64.178;15.432;2024-01-10T01:38:12;4.10;99.90
11446;DHT22;5779;64.178;15.432;2024-01-10T01:40:59;4.10;99.90
11446;DHT22;5779;64.178;15.432;2024-01-10T01:43:47;4.00;99.90
11446;DHT22;5779;64.178;15.432;2024-01-10T01:46:34;4.00;99.90
11446;DHT22;5779;64.178;15.432;2024-01-10T01:49:23;4.10;99.90
11446;DHT22;5779;64.178;15.432;2024-01-10T01:52:10;4.20;99.90
11446;DHT22;5779;64.178;15.432;2024-01-10T01:54:57;4.10;99.90
11446;DHT22;5779;64.178;15.432;2024-01-10T01:57:44;4.00;99.90
11446;DHT22;5779;64.178;15.432;2024-01-10T02:00:31;4.00;99.90
11446;DHT22;5779;64.178;15.432;2024-01-10T02:03:18;4.20;99.90
11446;DHT22;5779;64.178;15.432;2024-01-10T02:06:06;4.20;99.90
11446;DHT22;5779;64.178;15.432;2024-01-10T02:08:53;4.20;99.90
11446;DHT22;5779;64.178;15.432;2024-01-10T02:11:40;4.20;99.90
11446;DHT22;5779;64.178;15.432;2024-01-10T02:14:27;4.20;99.90
11446;DHT22;5779;64.178;15.432;2024-01-10T02:17:14;4.10;99.90
11446;DHT22;5779;64.178;15.432;2024-01-10T02:20:11;4.10;99.90
11446;DHT22;5779;64.178;15.432;2024-01-10T02:22:59;4.10;99.90
11446;DHT22;5779;64.178;15.432;2024-01-10T02:25:47;4.20;99.90
11446;DHT22;5779;64.178;15.432;2024-01-10T02:28:34;4.20;99.90
11446;DHT22;5779;64.178;15.432;2024-01-10T02:31:21;4.20;99.90
11446;DHT22;5779;64.178;15.432;2024-01-10T02:34:08;4.30;99.90
11446;DHT22;5779;64.178;15.432;2024-01-10T02:36:54;4.30;99.90
11446;DHT22;5779;64.178;15.432;2024-01-10T02:39:42;4.20;99.90
11446;DHT22;5779;64.178;15.432;2024-01-10T02:42:31;4.20;99.90
11446;DHT22;5779;64.178;15.432;2024-01-10T02:45:18;4.10;99.90
11446;DHT22;5779;64.178;15.432;2024-01-10T02:48:05;4.20;99.90
11446;DHT22;5779;64.178;15.432;2024-01-10T02:50:52;4.20;99.90
11446;DHT22;5779;64.178;15.432;2024-01-10T02:53:39;4.30;99.90
11446;DHT22;5779;64.178;15.432;2024-01-10T02:56:26;4.20;99.90
11446;DHT22;5779;64.178;15.432;2024-01-10T02:59:14;4.30;99.90
11446;DHT22;5779;64.178;15.432;2024-01-10T03:02:01;4.20;99.90
11446;DHT22;5779;64.178;15.432;2024-01-10T03:04:48;4.20;99.90
11446;DHT22;5779;64.178;15.432;2024-01-10T03:07:34;4.20;99.90
11446;DHT22;5779;64.178;15.432;2024-01-10T03:10:21;4.10;99.90
11446;DHT22;5779;64.178;15.432;2024-01-10T03:13:08;4.20;99.90
11446;DHT22;5779;64.178;15.432;2024-01-10T03:15:56;4.20;99.90
11446;DHT22;5779;64.178;15.432;2024-01-10T03:18:43;4.20;99.90
11446;DHT22;5779;64.178;15.432;2024-01-10T03:21:30;4.20;99.90
11446;DHT22;5779;64.178;15.432;2024-01-10T03:24:17;4.20;99.90
11446;DHT22;5779;64.178;15.432;2024-01-10T03:27:04;4.30;99.90
11446;DHT22;5779;64.178;15.432;2024-01-10T03:29:51;4.20;99.90
11446;DHT22;5779;64.178;15.432;2024-01-10T03:32:39;4.20;99.90
11446;DHT22;5779;64.178;15.432;2024-01-10T03:35:25;4.20;99.90
11446;DHT22;5779;64.178;15.432;2024-01-10T03:38:12;4.20;99.90
11446;DHT22;5779;64.178;15.432;2024-01-10T03:41:01;4.10;99.90
11446;DHT22;5779;64.178;15.432;2024-01-10T03:43:48;4.20;99.90
11446;DHT22;5779;64.178;15.432;2024-01-10T03:46:35;4.20;99.90
11446;DHT22;5779;64.178;15.432;2024-01-10T03:49:24;4.10;99.90
11446;DHT22;5779;64.178;15.432;2024-01-10T03:52:10;4.10;99.90
11446;DHT22;5779;64.178;15.432;2024-01-10T03:54:57;4.10;99.90
11446;DHT22;5779;64.178;15.432;2024-01-10T03:57:44;4.10;99.90
11446;DHT22;5779;64.178;15.432;2024-01-10T04:00:31;4.10;99.90
11446;DHT22;5779;64.178;15.432;2024-01-10T04:03:17;4.20;99.90
11446;DHT22;5779;64.178;15.432;2024-01-10T04:06:06;4.10;99.90
11446;DHT22;5779;64.178;15.432;2024-01-10T04:08:53;4.10;99.90
11446;DHT22;5779;64.178;15.432;2024-01-10T04:11:40;4.00;99.90
11446;DHT22;5779;64.178;15.432;2024-01-10T04:14:27;3.90;99.90
11446;DHT22;5779;64.178;15.432;2024-01-10T04:17:14;4.00;99.90
11446;DHT22;5779;64.178;15.432;2024-01-10T04:20:01;4.00;99.90
11446;DHT22;5779;64.178;15.432;2024-01-10T04:22:49;3.90;99.90
11446;DHT22;5779;64.178;15.432;2024-01-10T04:25:36;3.90;99.90
11446;DHT22;5779;64.178;15.432;2024-01-10T04:28:23;3.90;99.90
11446;DHT22;5779;64.178;15.432;2024-01-10T04:31:10;3.90;99.90
11446;DHT22;5779;64.178;15.432;2024-01-10T04:33:57;3.90;99.90
11446;DHT22;5779;64.178;15.432;2024-01-10T04:36:44;4.00;99.90
11446;DHT22;5779;64.178;15.432;2024-01-10T04:39:32;3.90;99.90
11446;DHT22;5779;64.178;15.432;2024-01-10T04:42:19;3.90;99.90
11446;DHT22;5779;64.178;15.432;2024-01-10T04:45:06;3.90;99.90
11446;DHT22;5779;64.178;15.432;2024-01-10T04:47:53;3.80;99.90
11446;DHT22;5779;64.178;15.432;2024-01-10T04:50:40;3.80;99.90
11446;DHT22;5779;64.178;15.432;2024-01-10T04:53:26;3.80;99.90
11446;DHT22;5779;64.178;15.432;2024-01-10T04:56:14;3.80;99.90
11446;DHT22;5779;64.178;15.432;2024-01-10T04:59:01;3.80;99.90
11446;DHT22;5779;64.178;15.432;2024-01-10T05:01:48;3.80;99.90
11446;DHT22;5779;64.178;15.432;2024-01-10T05:04:37;3.90;99.90
11446;DHT22;5779;64.178;15.432;2024-01-10T05:07:24;3.90;99.90
11446;DHT22;5779;64.178;15.432;2024-01-10T05:10:11;4.00;99.90
11446;DHT22;5779;64.178;15.432;2024-01-10T05:12:59;4.00;99.90
11446;DHT22;5779;64.178;15.432;2024-01-10T05:15:46;4.00;99.90
11446;DHT22;5779;64.178;15.432;2024-01-10T05:18:33;4.00;99.90
11446;DHT22;5779;64.178;15.432;2024-01-10T05:21:20;4.00;99.90
11446;DHT22;5779;64.178;15.432;2024-01-10T05:24:07;4.00;99.90
11446;DHT22;5779;64.178;15.432;2024-01-10T05:26:54;4.10;99.90
11446;DHT22;5779;64.178;15.432;2024-01-10T05:29:42;4.00;99.90
11446;DHT22;5779;64.178;15.432;2024-01-10T05:32:28;3.90;99.90
11446;DHT22;5779;64.178;15.432;2024-01-10T05:35:15;4.00;99.90
11446;DHT22;5779;64.178;15.432;2024-01-10T05:38:02;4.00;99.90
11446;DHT22;5779;64.178;15.432;2024-01-10T05:40:49;3.90;99.90
11446;DHT22;5779;64.178;15.432;2024-01-10T05:43:36;4.00;99.90
11446;DHT22;5779;64.178;15.432;2024-01-10T05:46:25;4.00;99.90
11446;DHT22;5779;64.178;15.432;2024-01-10T05:49:13;3.90;99.90
11446;DHT22;5779;64.178;15.432;2024-01-10T05:52:00;4.10;99.90
11446;DHT22;5779;64.178;15.432;2024-01-10T05:54:46;3.90;99.90
11446;DHT22;5779;64.178;15.432;2024-01-10T05:57:33;3.90;99.90
11446;DHT22;5779;64.178;15.432;2024-01-10T06:00:21;3.90;99.90
11446;DHT22;5779;64.178;15.432;2024-01-10T06:03:11;3.90;99.90
11446;DHT22;5779;64.178;15.432;2024-01-10T06:05:58;3.90;99.90
11446;DHT22;5779;64.178;15.432;2024-01-10T06:08:45;3.90;99.90
11446;DHT22;5779;64.178;15.432;2024-01-10T06:11:32;3.90;99.90
11446;DHT22;5779;64.178;15.432;2024-01-10T06:14:19;3.80;99.90
11446;DHT22;5779;64.178;15.432;2024-01-10T06:17:05;3.90;99.90
11446;DHT22;5779;64.178;15.432;2024-01-10T06:19:54;3.90;99.90
11446;DHT22;5779;64.178;15.432;2024-01-10T06:22:41;3.90;99.90
11446;DHT22;5779;64.178;15.432;2024-01-10T06:25:28;3.80;99.90
11446;DHT22;5779;64.178;15.432;2024-01-10T06:28:15;3.80;99.90
11446;DHT22;5779;64.178;15.432;2024-01-10T06:31:02;3.80;99.90
11446;DHT22;5779;64.178;15.432;2024-01-10T06:33:48;3.80;99.90
11446;DHT22;5779;64.178;15.432;2024-01-10T06:36:37;3.80;99.90
11446;DHT22;5779;64.178;15.432;2024-01-10T06:39:24;3.70;99.90
11446;DHT22;5779;64.178;15.432;2024-01-10T06:42:11;3.70;99.90
11446;DHT22;5779;64.178;15.432;2024-01-10T06:44:57;3.70;99.90
11446;DHT22;5779;64.178;15.432;2024-01-10T06:47:44;3.90;99.90
11446;DHT22;5779;64.178;15.432;2024-01-10T06:50:31;3.80;99.90
11446;DHT22;5779;64.178;15.432;2024-01-10T06:53:19;3.80;99.90
11446;DHT22;5779;64.178;15.432;2024-01-10T06:56:07;3.80;99.90
11446;DHT22;5779;64.178;15.432;2024-01-10T06:58:54;3.90;99.90
11446;DHT22;5779;64.178;15.432;2024-01-10T07:01:41;3.90;99.90
11446;DHT22;5779;64.178;15.432;2024-01-10T07:04:28;3.90;99.90
11446;DHT22;5779;64.178;15.432;2024-01-10T07:07:17;3.90;99.90
11446;DHT22;5779;64.178;15.432;2024-01-10T07:10:06;3.90;99.90
11446;DHT22;5779;64.178;15.432;2024-01-10T07:12:53;3.90;99.90
11446;DHT22;5779;64.178;15.432;2024-01-10T07:15:40;3.90;99.90
11446;DHT22;5779;64.178;15.432;2024-01-10T07:18:27;3.90;99.90
11446;DHT22;5779;64.178;15.432;2024-01-10T07:21:13;4.00;99.90
11446;DHT22;5779;64.178;15.432;2024-01-10T07:24:00;4.00;99.90
11446;DHT22;5779;64.178;15.432;2024-01-10T07:26:49;4.00;99.90
11446;DHT22;5779;64.178;15.432;2024-01-10T07:29:36;3.90;99.90
11446;DHT22;5779;64.178;15.432;2024-01-10T07:32:23;3.90;99.90
11446;DHT22;5779;64.178;15.432;2024-01-10T07:35:12;3.90;99.90
11446;DHT22;5779;64.178;15.432;2024-01-10T07:37:58;3.90;99.90
11446;DHT22;5779;64.178;15.432;2024-01-10T07:40:45;3.90;99.90
11446;DHT22;5779;64.178;15.432;2024-01-10T07:43:34;3.80;99.90
11446;DHT22;5779;64.178;15.432;2024-01-10T07:46:22;3.80;99.90
11446;DHT22;5779;64.178;15.432;2024-01-10T07:49:09;3.90;99.90
11446;DHT22;5779;64.178;15.432;2024-01-10T07:51:56;3.80;99.90
11446;DHT22;5779;64.178;15.432;2024-01-10T07:54:43;3.70;99.90
11446;DHT22;5779;64.178;15.432;2024-01-10T07:57:29;3.70;99.90
11446;DHT22;5779;64.178;15.432;2024-01-10T08:00:18;3.70;99.90
11446;DHT22;5779;64.178;15.432;2024-01-10T08:03:07;3.70;99.90
11446;DHT22;5779;64.178;15.432;2024-01-10T08:05:55;3.60;99.90
11446;DHT22;5779;64.178;15.432;2024-01-10T08:08:41;3.60;99.90
11446;DHT22;5779;64.178;15.432;2024-01-10T08:11:28;3.70;99.90
11446;DHT22;5779;64.178;15.432;2024-01-10T08:14:15;3.70;99.90
11446;DHT22;5779;64.178;15.432;2024-01-10T08:17:03;3.80;99.90
11446;DHT22;5779;64.178;15.432;2024-01-10T08:19:51;3.80;99.90
11446;DHT22;5779;64.178;15.432;2024-01-10T08:22:38;3.70;99.90
11446;DHT22;5779;64.178;15.432;2024-01-10T08:25:26;3.80;99.90
11446;DHT22;5779;64.178;15.432;2024-01-10T08:28:12;3.80;99.90
11446;DHT22;5779;64.178;15.432;2024-01-10T08:30:59;3.80;99.90
11446;DHT22;5779;64.178;15.432;2024-01-10T08:33:47;3.80;99.90
11446;DHT22;5779;64.178;15.432;2024-01-10T08:36:34;3.80;99.90
11446;DHT22;5779;64.178;15.432;2024-01-10T08:39:22;3.90;99.90
11446;DHT22;5779;64.178;15.432;2024-01-10T08:42:11;4.00;99.90
11446;DHT22;5779;64.178;15.432;2024-01-10T08:44:57;3.90;99.90
11446;DHT22;5779;64.178;15.432;2024-01-10T08:47:44;3.90;99.90
11446;DHT22;5779;64.178;15.432;2024-01-10T08:50:33;3.80;99.90
11446;DHT22;5779;64.178;15.432;2024-01-10T08:53:20;3.80;99.90
11446;DHT22;5779;64.178;15.432;2024-01-10T08:56:07;3.80;99.90
11446;DHT22;5779;64.178;15.432;2024-01-10T08:58:55;3.70;99.90
11446;DHT22;5779;64.178;15.432;2024-01-10T09:01:42;3.80;99.90
11446;DHT22;5779;64.178;15.432;2024-01-10T09:04:30;3.70;99.90
11446;DHT22;5779;64.178;15.432;2024-01-10T09:07:19;3.80;99.90
11446;DHT22;5779;64.178;15.432;2024-01-10T09:10:07;3.80;99.90
11446;DHT22;5779;64.178;15.432;2024-01-10T09:12:53;3.80;99.90
11446;DHT22;5779;64.178;15.432;2024-01-10T09:15:41;3.70;99.90
11446;DHT22;5779;64.178;15.432;2024-01-10T09:18:27;3.70;99.90
11446;DHT22;5779;64.178;15.432;2024-01-10T09:21:14;3.70;99.90
11446;DHT22;5779;64.178;15.432;2024-01-10T09:24:03;3.70;99.90
11446;DHT22;5779;64.178;15.432;2024-01-10T09:26:54;3.60;99.90
11446;DHT22;5779;64.178;15.432;2024-01-10T09:29:41;3.70;99.90
11446;DHT22;5779;64.178;15.432;2024-01-10T09:32:28;3.70;99.90
11446;DHT22;5779;64.178;15.432;2024-01-10T09:35:15;3.70;99.90
11446;DHT22;5779;64.178;15.432;2024-01-10T09:38:03;3.80;99.90
11446;DHT22;5779;64.178;15.432;2024-01-10T09:40:51;3.70;99.90
11446;DHT22;5779;64.178;15.432;2024-01-10T09:43:39;3.70;99.90
11446;DHT22;5779;64.178;15.432;2024-01-10T09:46:26;3.70;99.90
11446;DHT22;5779;64.178;15.432;2024-01-10T09:49:15;3.70;99.90
11446;DHT22;5779;64.178;15.432;2024-01-10T09:52:04;3.80;99.90
11446;DHT22;5779;64.178;15.432;2024-01-10T09:54:54;3.80;99.90
11446;DHT22;5779;64.178;15.432;2024-01-10T09:57:43;3.90;99.90
11446;DHT22;5779;64.178;15.432;2024-01-10T10:00:30;3.80;99.90
11446;DHT22;5779;64.178;15.432;2024-01-10T10:03:18;3.80;99.90
11446;DHT22;5779;64.178;15.432;2024-01-10T10:06:05;3.90;99.90
11446;DHT22;5779;64.178;15.432;2024-01-10T10:08:52;3.90;99.90
11446;DHT22;5779;64.178;15.432;2024-01-10T10:11:40;3.90;99.90
11446;DHT22;5779;64.178;15.432;2024-01-10T10:14:30;3.80;99.90
11446;DHT22;5779;64.178;15.432;2024-01-10T10:17:17;3.80;99.90
11446;DHT22;5779;64.178;15.432;2024-01-10T10:20:05;3.80;99.90
11446;DHT22;5779;64.178;15.432;2024-01-10T10:22:59;3.70;99.90
11446;DHT22;5779;64.178;15.432;2024-01-10T10:25:46;3.80;99.90
11446;DHT22;5779;64.178;15.432;2024-01-10T10:28:34;3.80;99.90
11446;DHT22;5779;64.178;15.432;2024-01-10T10:31:23;3.80;99.90
11446;DHT22;5779;64.178;15.432;2024-01-10T10:34:11;3.80;99.90
11446;DHT22;5779;64.178;15.432;2024-01-10T10:36:58;3.80;99.90
11446;DHT22;5779;64.178;15.432;2024-01-10T10:39:45;3.90;99.90
11446;DHT22;5779;64.178;15.432;2024-01-10T10:42:32;3.80;99.90
11446;DHT22;5779;64.178;15.432;2024-01-10T10:45:19;3.90;99.90
11446;DHT22;5779;64.178;15.432;2024-01-10T10:48:16;3.90;99.90
11446;DHT22;5779;64.178;15.432;2024-01-10T10:51:05;3.90;99.90
11446;DHT22;5779;64.178;15.432;2024-01-10T10:53:55;3.90;99.90
11446;DHT22;5779;64.178;15.432;2024-01-10T10:56:43;4.00;99.90
11446;DHT22;5779;64.178;15.432;2024-01-10T10:59:32;4.00;99.90
11446;DHT22;5779;64.178;15.432;2024-01-10T11:02:22;4.00;99.90
11446;DHT22;5779;64.178;15.432;2024-01-10T11:05:11;4.00;99.90
11446;DHT22;5779;64.178;15.432;2024-01-10T11:07:58;4.00;99.90
11446;DHT22;5779;64.178;15.432;2024-01-10T11:10:50;4.00;99.90
11446;DHT22;5779;64.178;15.432;2024-01-10T11:13:52;4.00;99.90
11446;DHT22;5779;64.178;15.432;2024-01-10T11:16:58;4.00;99.90
11446;DHT22;5779;64.178;15.432;2024-01-10T11:20:30;3.90;99.90
11446;DHT22;5779;64.178;15.432;2024-01-10T11:23:39;3.90;99.90
11446;DHT22;5779;64.178;15.432;2024-01-10T11:26:27;3.90;99.90
11446;DHT22;5779;64.178;15.432;2024-01-10T11:29:15;3.90;99.90
11446;DHT22;5779;64.178;15.432;2024-01-10T11:32:02;4.00;99.90
11446;DHT22;5779;64.178;15.432;2024-01-10T11:34:54;4.00;99.90
11446;DHT22;5779;64.178;15.432;2024-01-10T11:37:45;3.90;99.90
11446;DHT22;5779;64.178;15.432;2024-01-10T11:40:46;4.00;99.90
11446;DHT22;5779;64.178;15.432;2024-01-10T11:43:33;4.00;99.90
11446;DHT22;5779;64.178;15.432;2024-01-10T11:46:20;3.90;99.90
11446;DHT22;5779;64.178;15.432;2024-01-10T11:49:08;3.90;99.90
11446;DHT22;5779;64.178;15.432;2024-01-10T11:51:57;4.00;99.90
11446;DHT22;5779;64.178;15.432;2024-01-10T11:54:47;4.00;99.90
11446;DHT22;5779;64.178;15.432;2024-01-10T11:57:35;4.00;99.90
11446;DHT22;5779;64.178;15.432;2024-01-10T12:00:23;4.10;99.90
11446;DHT22;5779;64.178;15.432;2024-01-10T12:03:13;4.10;99.90
11446;DHT22;5779;64.178;15.432;2024-01-10T12:06:01;4.10;99.90
11446;DHT22;5779;64.178;15.432;2024-01-10T12:08:48;4.10;99.90
11446;DHT22;5779;64.178;15.432;2024-01-10T12:11:37;4.10;99.90
11446;DHT22;5779;64.178;15.432;2024-01-10T12:14:24;4.10;99.90
11446;DHT22;5779;64.178;15.432;2024-01-10T12:17:12;4.10;99.90
11446;DHT22;5779;64.178;15.432;2024-01-10T12:19:58;4.00;99.90
11446;DHT22;5779;64.178;15.432;2024-01-10T12:22:45;4.10;99.90
11446;DHT22;5779;64.178;15.432;2024-01-10T12:25:32;4.20;99.90
11446;DHT22;5779;64.178;15.432;2024-01-10T12:28:20;4.10;99.90
11446;DHT22;5779;64.178;15.432;2024-01-10T12:31:10;4.10;99.90
11446;DHT22;5779;64.178;15.432;2024-01-10T12:34:01;4.10;99.90
11446;DHT22;5779;64.178;15.432;2024-01-10T12:36:47;4.00;99.90
11446;DHT22;5779;64.178;15.432;2024-01-10T12:39:37;4.10;99.90
11446;DHT22;5779;64.178;15.432;2024-01-10T12:42:27;4.10;99.90
11446;DHT22;5779;64.178;15.432;2024-01-10T12:45:24;4.10;99.90
11446;DHT22;5779;64.178;15.432;2024-01-10T12:48:16;4.20;99.90
11446;DHT22;5779;64.178;15.432;2024-01-10T12:51:04;4.20;99.90
11446;DHT22;5779;64.178;15.432;2024-01-10T12:53:54;4.20;99.90
11446;DHT22;5779;64.178;15.432;2024-01-10T12:56:43;4.20;99.90
11446;DHT22;5779;64.178;15.432;2024-01-10T12:59:33;4.20;99.90
11446;DHT22;5779;64.178;15.432;2024-01-10T13:02:27;4.20;99.90
11446;DHT22;5779;64.178;15.432;2024-01-10T13:05:16;4.20;99.90
11446;DHT22;5779;64.178;15.432;2024-01-10T13:08:07;4.20;99.90
11446;DHT22;5779;64.178;15.432;2024-01-10T13:10:57;4.20;99.90
11446;DHT22;5779;64.178;15.432;2024-01-10T13:13:47;4.20;99.90
11446;DHT22;5779;64.178;15.432;2024-01-10T13:16:37;4.20;99.90
11446;DHT22;5779;64.178;15.432;2024-01-10T13:19:27;4.20;99.90
11446;DHT22;5779;64.178;15.432;2024-01-10T13:22:15;4.20;99.90
11446;DHT22;5779;64.178;15.432;2024-01-10T13:25:06;4.20;99.90
11446;DHT22;5779;64.178;15.432;2024-01-10T13:27:53;4.30;99.90
11446;DHT22;5779;64.178;15.432;2024-01-10T13:30:40;4.20;99.90
11446;DHT22;5779;64.178;15.432;2024-01-10T13:33:29;4.30;99.90
11446;DHT22;5779;64.178;15.432;2024-01-10T13:36:21;4.30;99.90
11446;DHT22;5779;64.178;15.432;2024-01-10T13:39:11;4.20;99.90
11446;DHT22;5779;64.178;15.432;2024-01-10T13:42:00;4.20;99.90
11446;DHT22;5779;64.178;15.432;2024-01-10T13:44:47;4.30;99.90
11446;DHT22;5779;64.178;15.432;2024-01-10T13:47:36;4.30;99.90
11446;DHT22;5779;64.178;15.432;2024-01-10T13:50:25;4.20;99.90
11446;DHT22;5779;64.178;15.432;2024-01-10T13:53:15;4.30;99.90
11446;DHT22;5779;64.178;15.432;2024-01-10T13:56:02;4.30;99.90
11446;DHT22;5779;64.178;15.432;2024-01-10T13:58:49;4.20;99.90
11446;DHT22;5779;64.178;15.432;2024-01-10T14:01:38;4.30;99.90
11446;DHT22;5779;64.178;15.432;2024-01-10T14:04:27;4.30;99.90
11446;DHT22;5779;64.178;15.432;2024-01-10T14:07:16;4.30;99.90
11446;DHT22;5779;64.178;15.432;2024-01-10T14:10:07;4.30;99.90
11446;DHT22;5779;64.178;15.432;2024-01-10T14:12:59;4.30;99.90
11446;DHT22;5779;64.178;15.432;2024-01-10T14:15:47;4.20;99.90
11446;DHT22;5779;64.178;15.432;2024-01-10T14:18:35;4.20;99.90
11446;DHT22;5779;64.178;15.432;2024-01-10T14:21:26;4.10;99.90
11446;DHT22;5779;64.178;15.432;2024-01-10T14:24:13;4.10;99.90
11446;DHT22;5779;64.178;15.432;2024-01-10T14:27:01;4.10;99.90
11446;DHT22;5779;64.178;15.432;2024-01-10T14:29:48;4.10;99.90
11446;DHT22;5779;64.178;15.432;2024-01-10T14:32:37;4.00;99.90
11446;DHT22;5779;64.178;15.432;2024-01-10T14:35:24;4.00;99.90
11446;DHT22;5779;64.178;15.432;2024-01-10T14:38:10;4.10;99.90
11446;DHT22;5779;64.178;15.432;2024-01-10T14:40:57;4.10;99.90
11446;DHT22;5779;64.178;15.432;2024-01-10T14:43:49;4.10;99.90
11446;DHT22;5779;64.178;15.432;2024-01-10T14:46:36;4.00;99.90
11446;DHT22;5779;64.178;15.432;2024-01-10T14:49:26;4.00;99.90
11446;DHT22;5779;64.178;15.432;2024-01-10T14:52:15;4.10;99.90
11446;DHT22;5779;64.178;15.432;2024-01-10T14:55:08;4.10;99.90
11446;DHT22;5779;64.178;15.432;2024-01-10T14:57:57;4.00;99.90
11446;DHT22;5779;64.178;15.432;2024-01-10T15:00:46;4.00;99.90
11446;DHT22;5779;64.178;15.432;2024-01-10T15:03:32;4.00;99.90
11446;DHT22;5779;64.178;15.432;2024-01-10T15:06:19;4.00;99.90
11446;DHT22;5779;64.178;15.432;2024-01-10T15:09:07;4.00;99.90
11446;DHT22;5779;64.178;15.432;2024-01-10T15:11:57;4.00;99.90
11446;DHT22;5779;64.178;15.432;2024-01-10T15:14:45;4.00;99.90
11446;DHT22;5779;64.178;15.432;2024-01-10T15:17:33;4.00;99.90
11446;DHT22;5779;64.178;15.432;2024-01-10T15:20:20;4.00;99.90
11446;DHT22;5779;64.178;15.432;2024-01-10T15:23:09;3.90;99.90
11446;DHT22;5779;64.178;15.432;2024-01-10T15:25:58;4.00;99.90
11446;DHT22;5779;64.178;15.432;2024-01-10T15:28:45;3.90;99.90
11446;DHT22;5779;64.178;15.432;2024-01-10T15:31:33;4.00;99.90
11446;DHT22;5779;64.178;15.432;2024-01-10T15:34:23;4.00;99.90
11446;DHT22;5779;64.178;15.432;2024-01-10T15:37:13;3.90;99.90
11446;DHT22;5779;64.178;15.432;2024-01-10T15:40:08;4.00;99.90
11446;DHT22;5779;64.178;15.432;2024-01-10T15:42:58;4.00;99.90
11446;DHT22;5779;64.178;15.432;2024-01-10T15:45:45;3.90;99.90
11446;DHT22;5779;64.178;15.432;2024-01-10T15:48:36;4.00;99.90
11446;DHT22;5779;64.178;15.432;2024-01-10T15:51:24;4.10;99.90
11446;DHT22;5779;64.178;15.432;2024-01-10T15:54:11;4.00;99.90
11446;DHT22;5779;64.178;15.432;2024-01-10T15:56:58;3.90;99.90
11446;DHT22;5779;64.178;15.432;2024-01-10T15:59:48;4.00;99.90
11446;DHT22;5779;64.178;15.432;2024-01-10T16:02:39;3.90;99.90
11446;DHT22;5779;64.178;15.432;2024-01-10T16:05:28;4.10;99.90
11446;DHT22;5779;64.178;15.432;2024-01-10T16:08:17;4.00;99.90
11446;DHT22;5779;64.178;15.432;2024-01-10T16:11:04;4.00;99.90
11446;DHT22;5779;64.178;15.432;2024-01-10T16:13:54;4.00;99.90
11446;DHT22;5779;64.178;15.432;2024-01-10T16:16:42;3.80;99.90
11446;DHT22;5779;64.178;15.432;2024-01-10T16:19:33;3.90;99.90
11446;DHT22;5779;64.178;15.432;2024-01-10T16:22:22;3.80;99.90
11446;DHT22;5779;64.178;15.432;2024-01-10T16:25:15;3.70;99.90
11446;DHT22;5779;64.178;15.432;2024-01-10T16:28:05;3.70;99.90
11446;DHT22;5779;64.178;15.432;2024-01-10T16:30:58;3.70;99.90
11446;DHT22;5779;64.178;15.432;2024-01-10T16:33:46;3.70;99.90
11446;DHT22;5779;64.178;15.432;2024-01-10T16:36:34;3.70;99.90
11446;DHT22;5779;64.178;15.432;2024-01-10T16:39:23;3.70;99.90
11446;DHT22;5779;64.178;15.432;2024-01-10T16:42:16;3.70;99.90
11446;DHT22;5779;64.178;15.432;2024-01-10T16:45:06;3.80;99.90
11446;DHT22;5779;64.178;15.432;2024-01-10T16:47:56;3.70;99.90
11446;DHT22;5779;64.178;15.432;2024-01-10T16:50:43;3.70;99.90
11446;DHT22;5779;64.178;15.432;2024-01-10T16:53:33;3.80;99.90
11446;DHT22;5779;64.178;15.432;2024-01-10T16:56:23;3.70;99.90
11446;DHT22;5779;64.178;15.432;2024-01-10T16:59:15;3.70;99.90
11446;DHT22;5779;64.178;15.432;2024-01-10T17:02:03;3.80;99.90
11446;DHT22;5779;64.178;15.432;2024-01-10T17:04:50;3.90;99.90
11446;DHT22;5779;64.178;15.432;2024-01-10T17:07:38;3.80;99.90
11446;DHT22;5779;64.178;15.432;2024-01-10T17:10:25;3.90;99.90
11446;DHT22;5779;64.178;15.432;2024-01-10T17:13:13;3.90;99.90
11446;DHT22;5779;64.178;15.432;2024-01-10T17:16:07;3.80;99.90
11446;DHT22;5779;64.178;15.432;2024-01-10T17:18:55;3.90;99.90
11446;DHT22;5779;64.178;15.432;2024-01-10T17:21:44;3.90;99.90
11446;DHT22;5779;64.178;15.432;2024-01-10T17:24:34;3.80;99.90
11446;DHT22;5779;64.178;15.432;2024-01-10T17:27:23;3.80;99.90
11446;DHT22;5779;64.178;15.432;2024-01-10T17:30:11;3.90;99.90
11446;DHT22;5779;64.178;15.432;2024-01-10T17:33:00;3.70;99.90
11446;DHT22;5779;64.178;15.432;2024-01-10T17:35:51;3.80;99.90
11446;DHT22;5779;64.178;15.432;2024-01-10T17:38:38;3.70;99.90
11446;DHT22;5779;64.178;15.432;2024-01-10T17:41:25;3.80;99.90
11446;DHT22;5779;64.178;15.432;2024-01-10T17:44:12;3.80;99.90
11446;DHT22;5779;64.178;15.432;2024-01-10T17:47:01;3.70;99.90
11446;DHT22;5779;64.178;15.432;2024-01-10T17:49:49;3.70;99.90
11446;DHT22;5779;64.178;15.432;2024-01-10T17:52:39;3.70;99.90
11446;DHT22;5779;64.178;15.432;2024-01-10T17:55:28;3.70;99.90
11446;DHT22;5779;64.178;15.432;2024-01-10T17:58:15;3.70;99.90